Time;durP1;ratioP1;P1;durP2;ratioP2;P2;SDS_P1;SDS_P2;PMS_P1;PMS_P2;Temp;Humidity;BMP_temperature;BMP_pressure;BME280_temperature;BME280_humidity;BME280_pressure;Samples;Min_cycle;Max_cycle;Signal;HPM_P1;HPM_P2
2023/12/27 00:01:18;;;;;;;12.70;1.60;;;;;;;8.36;76.43;101473.72;5020345;27;96973;-71
2023/12/27 00:03:44;;;;;;;14.05;1.48;;;;;;;7.79;78.39;101483.28;5022812;27;102106;-71
2023/12/27 00:06:12;;;;;;;11.95;1.33;;;;;;;8.11;77.84;101492.50;5022237;27;99026;-70
2023/12/27 00:08:38;;;;;;;9.38;1.60;;;;;;;8.16;76.83;101493.31;5031129;27;96674;-71
2023/12/27 00:11:05;;;;;;;14.73;1.35;;;;;;;7.97;78.11;101492.69;5028881;27;98312;-71
2023/12/27 00:13:31;;;;;;;12.73;1.10;;;;;;;8.33;76.48;101497.50;5024313;27;100438;-71
2023/12/27 00:15:57;;;;;;;4.38;0.95;;;;;;;7.98;77.66;101497.06;5028878;27;99833;-71
2023/12/27 00:18:24;;;;;;;12.02;1.40;;;;;;;8.19;76.91;101503.81;5028670;27;97122;-71
2023/12/27 00:20:50;;;;;;;7.35;1.05;;;;;;;7.60;79.31;101502.78;5023948;27;96865;-71
2023/12/27 00:23:18;;;;;;;9.05;1.23;;;;;;;7.69;79.57;101500.03;5023995;27;99384;-71
2023/12/27 00:25:44;;;;;;;7.40;1.48;;;;;;;8.01;77.58;101511.03;5028538;27;98839;-70
2023/12/27 00:28:10;;;;;;;14.35;1.40;;;;;;;7.66;79.75;101509.75;5030143;27;96758;-70
2023/12/27 00:30:36;;;;;;;13.35;1.15;;;;;;;7.73;79.42;101509.66;5027424;27;96745;-71
2023/12/27 00:33:03;;;;;;;8.30;1.40;;;;;;;7.63;79.67;101515.88;5027098;27;99267;-70
2023/12/27 00:35:30;;;;;;;7.13;0.93;;;;;;;7.40;81.41;101515.28;5025727;27;99341;-71
2023/12/27 00:37:57;;;;;;;10.50;1.45;;;;;;;7.71;79.57;101529.84;5030729;27;96868;-71
2023/12/27 00:40:24;;;;;;;14.35;1.67;;;;;;;7.60;79.36;101529.09;5022950;27;99497;-72
2023/12/27 00:42:51;;;;;;;9.73;1.13;;;;;;;7.73;79.63;101537.72;5029889;27;99427;-71
2023/12/27 00:45:17;;;;;;;12.55;1.10;;;;;;;7.89;78.94;101536.63;5031030;27;99123;-70
2023/12/27 00:47:45;;;;;;;10.07;1.15;;;;;;;7.61;79.68;101544.84;5028147;27;98755;-71
2023/12/27 00:50:12;;;;;;;12.35;1.95;;;;;;;7.77;79.00;101544.69;5027927;27;97111;-70
2023/12/27 00:52:38;;;;;;;12.15;2.08;;;;;;;7.85;77.95;101556.00;5029918;27;99182;-71
2023/12/27 00:55:05;;;;;;;11.88;1.67;;;;;;;7.51;79.77;101564.25;5031342;27;99031;-71
2023/12/27 00:57:33;;;;;;;10.20;1.15;;;;;;;7.47;80.87;101557.28;5024835;27;97013;-71
2023/12/27 01:00:00;;;;;;;10.30;1.25;;;;;;;7.60;80.20;101563.28;5031452;27;97115;-71
2023/12/27 01:02:26;;;;;;;6.07;1.20;;;;;;;7.43;80.66;101567.81;5029358;27;97660;-71
2023/12/27 01:04:54;;;;;;;10.80;1.50;;;;;;;7.58;80.54;101571.19;5026116;27;101818;-71
2023/12/27 01:07:21;;;;;;;10.45;1.15;;;;;;;7.77;79.95;101574.50;5022008;27;97292;-70
2023/12/27 01:09:48;;;;;;;7.90;1.38;;;;;;;7.79;78.96;101569.22;5030569;27;97123;-70
2023/12/27 01:12:14;;;;;;;11.23;1.02;;;;;;;7.82;78.75;101571.81;5024665;27;97611;-71
2023/12/27 01:14:42;;;;;;;9.65;1.17;;;;;;;8.06;78.15;101591.72;5031008;27;99499;-71
2023/12/27 01:17:09;;;;;;;10.05;1.27;;;;;;;8.15;77.49;101578.44;5029594;27;97429;-71
2023/12/27 01:19:35;;;;;;;16.83;1.50;;;;;;;8.05;77.45;101575.06;5022001;27;97200;-71
2023/12/27 01:22:02;;;;;;;15.30;1.60;;;;;;;8.07;77.80;101590.84;5021666;27;99378;-71
2023/12/27 01:24:28;;;;;;;10.27;1.30;;;;;;;7.59;80.28;101593.09;5020868;27;98880;-71
2023/12/27 01:26:55;;;;;;;17.35;1.52;;;;;;;7.35;80.72;101594.19;5019332;27;97148;-71
2023/12/27 01:29:21;;;;;;;6.97;1.10;;;;;;;7.42;81.40;101600.25;5025021;27;97262;-70
2023/12/27 01:31:49;;;;;;;10.65;1.30;;;;;;;8.03;78.89;101616.31;5022621;28;99310;-70
2023/12/27 01:34:15;;;;;;;14.93;1.38;;;;;;;8.49;76.32;101621.91;5029907;27;98574;-69
2023/12/27 01:36:41;;;;;;;7.15;1.00;;;;;;;7.71;78.86;101616.66;5030492;27;96671;-70
2023/12/27 01:39:08;;;;;;;6.45;1.10;;;;;;;7.31;81.77;101621.41;5035244;27;97363;-70
2023/12/27 01:41:34;;;;;;;11.93;1.58;;;;;;;7.50;81.61;101630.88;5021047;27;98794;-69
2023/12/27 01:44:00;;;;;;;13.02;1.50;;;;;;;7.52;80.90;101637.00;5029901;27;98928;-70
2023/12/27 01:46:27;;;;;;;8.70;1.50;;;;;;;7.71;80.29;101639.44;5028721;27;97359;-70
2023/12/27 01:48:55;;;;;;;9.40;1.20;;;;;;;7.48;81.69;101650.19;5030459;27;96779;-70
2023/12/27 01:51:21;;;;;;;14.93;1.95;;;;;;;6.89;84.14;101653.25;5029359;27;98966;-71
2023/12/27 01:53:48;;;;;;;12.10;1.13;;;;;;;6.71;85.15;101660.34;5025396;27;101532;-70
2023/12/27 01:56:15;;;;;;;15.77;2.25;;;;;;;7.16;84.34;101656.56;5022549;27;96896;-70
2023/12/27 01:58:41;;;;;;;8.15;1.02;;;;;;;7.06;83.26;101651.38;5030253;27;96730;-70
2023/12/27 02:01:08;;;;;;;10.77;1.27;;;;;;;7.07;83.35;101647.88;5022883;27;98643;-70
2023/12/27 02:03:34;;;;;;;12.90;1.05;;;;;;;7.19;83.41;101650.41;5028173;27;101887;-70
2023/12/27 02:06:03;;;;;;;18.65;1.88;;;;;;;6.83;84.57;101646.25;5023522;27;96701;-70
2023/12/27 02:08:29;;;;;;;13.50;1.58;;;;;;;6.79;85.77;101658.56;5025912;27;97059;-70
2023/12/27 02:10:56;;;;;;;13.70;1.08;;;;;;;6.72;86.08;101662.09;5026309;27;100928;-70
2023/12/27 02:13:23;;;;;;;10.90;1.20;;;;;;;6.70;86.25;101660.34;5028724;27;98601;-71
2023/12/27 02:15:51;;;;;;;16.40;1.42;;;;;;;6.98;84.98;101655.81;5023606;27;97288;-71
2023/12/27 02:18:18;;;;;;;7.75;1.42;;;;;;;6.89;84.71;101656.75;5026572;27;98416;-70
2023/12/27 02:20:45;;;;;;;7.85;1.42;;;;;;;6.84;84.74;101660.25;5024203;27;99073;-71
2023/12/27 02:23:18;;;;;;;15.57;1.77;;;;;;;6.87;85.16;101647.13;5027228;27;101575;-71
2023/12/27 02:25:47;;;;;;;12.57;1.98;;;;;;;6.86;84.54;101662.00;5024851;27;97333;-70
2023/12/27 02:28:13;;;;;;;6.57;0.80;;;;;;;6.70;85.15;101661.22;5028254;27;97434;-70
2023/12/27 02:30:40;;;;;;;12.52;1.90;;;;;;;6.53;86.42;101663.06;5027167;27;98969;-70
2023/12/27 02:33:06;;;;;;;14.80;1.65;;;;;;;6.84;85.84;101665.53;5027347;27;101107;-70
2023/12/27 02:35:32;;;;;;;10.63;1.38;;;;;;;7.07;84.57;101667.16;5029324;27;97182;-70
2023/12/27 02:37:59;;;;;;;15.38;1.70;;;;;;;7.12;83.51;101665.34;5029699;27;97155;-71
2023/12/27 02:40:25;;;;;;;5.80;0.90;;;;;;;6.42;85.92;101659.63;5028986;27;99744;-71
2023/12/27 02:46:15;;;;;;;5.78;1.20;;;;;;;6.29;87.93;101656.16;5014194;27;98157;-72
2023/12/27 02:48:41;;;;;;;14.95;1.15;;;;;;;6.66;85.83;101654.25;5027316;27;100179;-71
2023/12/27 02:51:08;;;;;;;10.85;1.55;;;;;;;6.49;87.05;101665.72;5037446;27;99085;-71
2023/12/27 02:53:34;;;;;;;7.25;1.17;;;;;;;6.67;86.53;101648.13;5027822;27;98975;-72
2023/12/27 02:56:00;;;;;;;10.27;1.38;;;;;;;6.85;85.25;101643.63;5025723;27;97120;-71
2023/12/27 02:58:27;;;;;;;16.77;1.20;;;;;;;6.44;86.61;101649.97;5024604;27;96841;-71
2023/12/27 03:00:53;;;;;;;8.95;1.20;;;;;;;6.56;86.88;101644.69;5030021;27;97411;-71
2023/12/27 03:03:21;;;;;;;9.35;0.85;;;;;;;6.71;85.44;101652.47;5041069;27;98864;-71
2023/12/27 03:05:47;;;;;;;8.77;1.30;;;;;;;6.68;85.92;101652.50;5024017;27;98101;-72
2023/12/27 03:08:13;;;;;;;9.88;1.88;;;;;;;6.70;85.83;101661.22;5034751;27;96927;-71
2023/12/27 03:10:40;;;;;;;9.50;1.73;;;;;;;6.56;86.64;101668.31;5033450;27;97743;-72
2023/12/27 03:13:06;;;;;;;9.48;1.55;;;;;;;6.37;87.84;101669.25;5021599;27;99105;-71
2023/12/27 03:15:32;;;;;;;13.50;2.20;;;;;;;6.96;84.36;101673.31;5024433;27;97349;-71
2023/12/27 03:17:59;;;;;;;13.05;1.60;;;;;;;6.88;85.11;101662.00;5038289;27;98274;-71
2023/12/27 03:20:26;;;;;;;8.00;1.05;;;;;;;7.06;83.62;101665.41;5026034;27;99249;-71
2023/12/27 03:22:53;;;;;;;12.20;1.48;;;;;;;7.02;84.08;101673.31;5038745;27;99862;-71
2023/12/27 03:25:19;;;;;;;16.75;1.83;;;;;;;6.96;84.10;101668.06;5023969;27;96723;-71
2023/12/27 03:27:46;;;;;;;11.70;1.27;;;;;;;6.96;84.47;101668.06;5021909;27;96878;-70
2023/12/27 03:30:13;;;;;;;15.75;1.95;;;;;;;7.34;82.93;101667.84;5037782;27;99157;-71
2023/12/27 03:32:39;;;;;;;7.43;1.10;;;;;;;7.29;82.17;101664.34;5021242;27;99393;-71
2023/12/27 03:35:06;;;;;;;13.90;1.27;;;;;;;7.34;81.42;101662.59;5025260;27;96856;-70
2023/12/27 03:37:33;;;;;;;12.93;1.50;;;;;;;7.15;82.51;101675.00;5025375;27;98815;-70
2023/12/27 03:40:00;;;;;;;18.85;2.47;;;;;;;7.07;83.00;101661.00;5028903;27;99508;-72
2023/12/27 03:42:26;;;;;;;9.43;1.20;;;;;;;6.93;83.62;101679.50;5023870;27;99015;-70
2023/12/27 03:44:53;;;;;;;10.85;2.17;;;;;;;6.78;84.19;101677.81;5031983;27;96700;-71
2023/12/27 03:47:20;;;;;;;13.20;1.45;;;;;;;6.91;83.62;101683.00;5030308;27;97156;-71
2023/12/27 03:49:46;;;;;;;16.50;1.73;;;;;;;6.65;84.83;101691.00;5032837;27;98697;-71
2023/12/27 03:52:13;;;;;;;10.23;1.33;;;;;;;6.76;84.39;101692.69;5025762;27;99366;-71
2023/12/27 03:54:41;;;;;;;10.60;1.85;;;;;;;6.90;83.93;101684.75;5030199;27;97594;-71
2023/12/27 03:57:07;;;;;;;5.88;1.27;;;;;;;6.71;84.26;101694.47;5031602;27;97195;-71
2023/12/27 03:59:37;;;;;;;11.00;1.27;;;;;;;6.96;83.89;101691.72;5026689;27;99006;-71
2023/12/27 04:02:03;;;;;;;7.55;1.05;;;;;;;7.08;82.59;101689.06;5023876;27;99356;-71
2023/12/27 04:04:33;;;;;;;16.30;1.75;;;;;;;6.76;84.02;101703.22;5025226;27;99037;-71
2023/12/27 04:07:00;;;;;;;10.90;1.48;;;;;;;6.87;83.55;101707.56;5031538;27;100106;-70
2023/12/27 04:09:26;;;;;;;16.05;1.67;;;;;;;7.51;81.27;101703.63;5030741;27;99033;-70
2023/12/27 04:11:54;;;;;;;16.17;1.52;;;;;;;6.99;81.95;101710.13;5029384;27;98748;-71
2023/12/27 04:14:20;;;;;;;10.30;1.10;;;;;;;6.95;83.07;101703.13;5028125;27;96779;-70
2023/12/27 04:16:46;;;;;;;8.18;1.15;;;;;;;6.93;82.92;101707.53;5031201;27;96955;-70
2023/12/27 04:19:13;;;;;;;12.10;1.25;;;;;;;6.74;83.94;101709.38;5024995;27;99381;-70
2023/12/27 04:21:41;;;;;;;11.07;1.00;;;;;;;6.88;83.18;101711.94;5034047;27;98058;-70
2023/12/27 04:24:08;;;;;;;12.65;1.42;;;;;;;6.80;83.81;101714.59;5030698;27;96728;-70
2023/12/27 04:26:37;;;;;;;22.45;1.70;;;;;;;6.85;83.40;101711.94;5019966;27;97193;-70
2023/12/27 04:29:06;;;;;;;13.50;1.58;;;;;;;7.09;82.50;101712.66;5026146;27;98883;-70
2023/12/27 04:31:32;;;;;;;12.02;1.25;;;;;;;6.90;83.23;101710.16;5024101;27;98999;-71
2023/12/27 04:33:59;;;;;;;14.15;1.50;;;;;;;6.62;84.59;101720.81;5032055;27;97778;-71
2023/12/27 04:36:25;;;;;;;12.00;1.05;;;;;;;6.31;85.34;101719.13;5030660;27;96815;-71
2023/12/27 04:38:51;;;;;;;14.00;1.23;;;;;;;6.24;86.38;101717.41;5018432;27;99203;-71
2023/12/27 04:41:18;;;;;;;16.85;1.08;;;;;;;6.15;87.54;101717.44;5030415;27;99494;-71
2023/12/27 04:43:44;;;;;;;12.52;1.48;;;;;;;6.31;86.50;101722.63;5018268;27;97160;-71
2023/12/27 04:46:12;;;;;;;11.18;1.00;;;;;;;6.35;85.97;101718.28;5024004;27;98968;-71
2023/12/27 04:48:39;;;;;;;9.40;1.38;;;;;;;6.25;86.11;101725.28;5021486;27;98008;-71
2023/12/27 04:51:05;;;;;;;16.13;1.52;;;;;;;6.32;85.40;101726.13;5029847;27;97929;-71
2023/12/27 04:53:32;;;;;;;10.00;1.50;;;;;;;6.39;86.08;101731.38;5030393;27;96713;-71
2023/12/27 04:55:58;;;;;;;10.95;1.35;;;;;;;6.61;84.91;101729.56;5029026;27;97456;-71
2023/12/27 04:58:24;;;;;;;10.38;1.10;;;;;;;6.70;83.69;101734.75;5029416;27;101316;-71
2023/12/27 05:00:51;;;;;;;15.02;1.90;;;;;;;6.67;83.85;101739.16;5038665;27;99341;-72
2023/12/27 05:03:18;;;;;;;14.05;1.13;;;;;;;6.78;82.94;101735.63;5028727;27;96882;-70
2023/12/27 05:05:45;;;;;;;15.57;1.20;;;;;;;6.79;82.76;101733.84;5031095;27;97139;-70
2023/12/27 05:08:11;;;;;;;22.65;1.77;;;;;;;6.55;84.51;101740.09;5029926;27;97649;-71
2023/12/27 05:10:37;;;;;;;10.30;1.25;;;;;;;6.44;84.64;101740.97;5027433;27;99094;-69
2023/12/27 05:13:04;;;;;;;12.35;1.30;;;;;;;6.51;84.67;101748.84;5026848;27;97326;-70
2023/12/27 05:15:30;;;;;;;13.23;2.10;;;;;;;6.30;85.56;101738.41;5027299;27;97052;-69
2023/12/27 05:17:57;;;;;;;12.48;1.65;;;;;;;6.86;83.06;101748.72;5021354;27;99276;-70
2023/12/27 05:20:25;;;;;;;12.05;1.90;;;;;;;6.68;83.53;101747.03;5026318;27;98761;-70
2023/12/27 05:22:51;;;;;;;15.93;1.50;;;;;;;6.77;82.91;101756.63;5029750;27;98611;-72
2023/12/27 05:25:18;;;;;;;7.70;1.10;;;;;;;6.88;82.07;101757.47;5025423;27;97191;-70
2023/12/27 05:27:44;;;;;;;8.65;1.33;;;;;;;6.62;82.86;101749.69;5019280;27;98277;-71
2023/12/27 05:30:11;;;;;;;12.52;1.52;;;;;;;6.50;84.17;101762.84;5018193;27;99003;-71
2023/12/27 05:32:38;;;;;;;13.80;1.30;;;;;;;6.43;83.85;101761.13;5036038;27;97409;-71
2023/12/27 05:35:05;;;;;;;16.13;1.80;;;;;;;6.34;84.92;101767.28;5031204;27;97244;-71
2023/12/27 05:37:33;;;;;;;13.90;1.30;;;;;;;6.06;86.05;101769.91;5023430;27;97684;-71
2023/12/27 05:40:00;;;;;;;7.85;0.98;;;;;;;6.25;85.72;101767.28;5021590;27;98817;-70
2023/12/27 05:42:26;;;;;;;15.80;1.45;;;;;;;6.07;85.56;101767.31;5024200;27;97019;-71
2023/12/27 05:44:52;;;;;;;12.73;1.67;;;;;;;6.31;85.46;101766.38;5027407;27;96914;-71
2023/12/27 05:47:19;;;;;;;10.75;1.30;;;;;;;6.34;85.05;101774.28;5024220;27;99339;-71
2023/12/27 05:49:46;;;;;;;10.05;1.23;;;;;;;6.49;84.60;101776.88;5028121;27;99096;-71
2023/12/27 05:52:12;;;;;;;12.27;1.20;;;;;;;6.31;84.78;101782.13;5021948;27;98746;-70
2023/12/27 05:54:40;;;;;;;11.43;1.05;;;;;;;6.08;86.27;101795.28;5026422;27;96930;-71
2023/12/27 05:57:07;;;;;;;12.27;2.13;;;;;;;6.23;85.67;101789.16;5022909;27;99024;-71
2023/12/27 05:59:33;;;;;;;7.82;1.30;;;;;;;6.26;85.36;101794.41;5029830;27;100958;-71
2023/12/27 06:01:59;;;;;;;15.30;1.23;;;;;;;6.44;84.33;101794.38;5025713;27;97219;-71
2023/12/27 06:04:27;;;;;;;14.45;1.10;;;;;;;6.18;85.76;101798.78;5023707;27;96778;-72
2023/12/27 06:06:53;;;;;;;9.82;1.42;;;;;;;6.34;84.60;101798.78;5031430;27;98844;-71
2023/12/27 06:09:21;;;;;;;8.40;0.77;;;;;;;5.95;86.54;101804.03;5024895;27;97724;-71
2023/12/27 06:11:49;;;;;;;10.52;1.10;;;;;;;5.69;88.32;101801.38;5034394;27;97348;-71
2023/12/27 06:14:15;;;;;;;12.40;1.42;;;;;;;5.92;87.63;101814.53;5029804;27;96818;-71
2023/12/27 06:16:43;;;;;;;13.25;1.88;;;;;;;6.07;87.15;101814.53;5028357;27;97605;-70
2023/12/27 06:19:09;;;;;;;7.75;1.00;;;;;;;6.06;86.41;101818.03;5028251;27;101072;-71
2023/12/27 06:21:35;;;;;;;12.82;1.27;;;;;;;5.96;87.70;101826.78;5019474;27;97677;-71
2023/12/27 06:24:02;;;;;;;11.02;1.98;;;;;;;5.97;87.10;101824.13;5040129;27;96931;-71
2023/12/27 06:26:28;;;;;;;13.75;1.00;;;;;;;5.89;88.15;101830.28;5027347;27;99027;-71
2023/12/27 06:28:56;;;;;;;16.10;1.85;;;;;;;6.30;85.97;101831.13;5028527;27;99141;-71
2023/12/27 06:31:22;;;;;;;10.18;1.20;;;;;;;6.36;84.77;101828.53;5023027;27;96660;-71
2023/12/27 06:33:49;;;;;;;12.73;1.20;;;;;;;6.39;84.40;101838.13;5030682;27;97314;-70
2023/12/27 06:36:15;;;;;;;13.00;1.60;;;;;;;6.46;84.50;101832.00;5025795;27;98919;-71
2023/12/27 06:38:45;;;;;;;12.82;1.20;;;;;;;6.72;83.25;101845.97;5026866;27;98896;-70
2023/12/27 06:41:12;;;;;;;13.80;1.52;;;;;;;6.86;82.23;101845.06;5027766;27;97980;-71
2023/12/27 06:43:41;;;;;;;13.15;1.92;;;;;;;6.23;84.53;101841.66;5029204;27;96879;-71
2023/12/27 06:46:09;;;;;;;12.00;1.38;;;;;;;6.12;84.96;101840.78;5020631;27;98963;-71
2023/12/27 06:48:35;;;;;;;12.80;2.17;;;;;;;5.98;86.03;101836.38;5025783;27;98910;-71
2023/12/27 06:51:05;;;;;;;8.57;0.88;;;;;;;5.96;86.62;101843.41;5026167;27;97021;-70
2023/12/27 06:53:31;;;;;;;12.40;1.30;;;;;;;6.39;84.30;101836.38;5028059;27;96817;-72
2023/12/27 06:55:58;;;;;;;14.73;1.83;;;;;;;5.98;87.04;101846.88;5027757;27;100010;-71
2023/12/27 06:58:24;;;;;;;11.38;1.55;;;;;;;6.46;84.21;101841.63;5026600;27;102184;-71
2023/12/27 07:00:50;;;;;;;8.20;1.20;;;;;;;6.51;83.21;101848.63;5028475;27;98833;-71
2023/12/27 07:03:18;;;;;;;7.68;0.73;;;;;;;5.84;85.96;101853.81;5022167;27;96838;-70
2023/12/27 07:05:44;;;;;;;15.57;2.00;;;;;;;6.21;85.14;101860.03;5030681;27;99120;-70
2023/12/27 07:08:11;;;;;;;12.15;1.23;;;;;;;6.46;83.98;101858.25;5032567;27;99118;-70
2023/12/27 07:10:37;;;;;;;12.38;1.30;;;;;;;6.40;83.67;101853.00;5020124;27;96942;-70
2023/12/27 07:13:04;;;;;;;11.23;1.40;;;;;;;6.10;85.33;101863.53;5037531;27;97818;-71
2023/12/27 07:15:31;;;;;;;13.30;2.03;;;;;;;6.14;85.53;101862.66;5023201;27;98906;-71
2023/12/27 07:17:58;;;;;;;23.58;1.50;;;;;;;6.43;83.89;101863.53;5028500;27;99375;-71
2023/12/27 07:20:26;;;;;;;12.60;1.92;;;;;;;6.25;83.79;101863.50;5032478;27;96724;-72
2023/12/27 07:22:53;;;;;;;16.60;2.13;;;;;;;6.29;84.45;101867.91;5023037;27;97624;-71
2023/12/27 07:25:20;;;;;;;16.73;1.40;;;;;;;6.49;83.71;101865.28;5035061;27;98850;-71
2023/12/27 07:27:46;;;;;;;12.35;1.23;;;;;;;6.51;83.08;101880.13;5022975;27;97661;-70
2023/12/27 07:30:13;;;;;;;16.42;1.60;;;;;;;6.27;84.16;101880.16;5034134;27;97338;-70
2023/12/27 07:32:40;;;;;;;19.95;1.55;;;;;;;6.62;82.48;101894.16;5036071;27;97230;-71
2023/12/27 07:35:07;;;;;;;15.57;1.52;;;;;;;6.55;82.42;101894.16;5036739;27;98853;-72
2023/12/27 07:37:35;;;;;;;9.85;1.17;;;;;;;6.30;83.35;101893.28;5029952;27;101081;-72
2023/12/27 07:40:01;;;;;;;7.55;1.13;;;;;;;6.28;83.59;101882.78;5032029;27;96855;-70
2023/12/27 07:42:27;;;;;;;9.85;1.40;;;;;;;6.82;82.37;101875.72;5024751;27;97174;-70
2023/12/27 07:44:54;;;;;;;11.38;1.15;;;;;;;6.91;81.31;101883.56;5027000;27;99062;-71
2023/12/27 07:47:20;;;;;;;14.85;1.40;;;;;;;7.19;79.92;101874.72;5024321;27;99202;-71
2023/12/27 07:49:46;;;;;;;12.00;2.00;;;;;;;7.18;79.52;101885.25;5031943;27;96717;-71
2023/12/27 07:52:13;;;;;;;14.30;1.35;;;;;;;6.47;82.56;101878.41;5030591;27;96868;-71
2023/12/27 07:54:41;;;;;;;7.72;1.00;;;;;;;6.83;81.71;101879.22;5024692;27;98219;-71
2023/12/27 07:57:07;;;;;;;13.05;2.13;;;;;;;6.80;81.38;101883.59;5031249;27;100550;-71
2023/12/27 07:59:34;;;;;;;7.97;1.13;;;;;;;6.83;81.49;101895.00;5032008;27;96759;-71
2023/12/27 08:02:00;;;;;;;7.43;1.45;;;;;;;6.58;82.37;101900.25;5031242;27;96736;-71
2023/12/27 08:04:27;;;;;;;12.13;2.38;;;;;;;6.21;84.35;101896.78;5031180;27;99366;-71
2023/12/27 08:06:54;;;;;;;10.40;1.23;;;;;;;5.90;85.98;101901.13;5029867;27;100933;-71
2023/12/27 08:09:22;;;;;;;14.18;1.08;;;;;;;5.51;88.60;101906.22;5018352;27;98033;-71
2023/12/27 08:11:51;;;;;;;11.38;1.20;;;;;;;5.34;88.90;101903.50;5021128;27;98737;-71
2023/12/27 08:14:17;;;;;;;18.83;1.67;;;;;;;5.83;87.22;101908.94;5027106;27;97614;-71
2023/12/27 08:16:44;;;;;;;9.57;1.00;;;;;;;6.06;86.27;101909.00;5024704;27;98786;-71
2023/12/27 08:19:11;;;;;;;11.77;1.52;;;;;;;6.34;84.05;101909.03;5030775;27;96960;-71
2023/12/27 08:21:37;;;;;;;18.20;2.72;;;;;;;6.38;83.99;101913.41;5023528;27;96779;-71
2023/12/27 08:24:04;;;;;;;19.20;2.03;;;;;;;7.01;81.19;101914.22;5038069;27;99702;-71
2023/12/27 08:26:31;;;;;;;18.45;1.40;;;;;;;7.19;79.87;101919.41;5026253;27;99443;-71
2023/12/27 08:28:58;;;;;;;10.65;1.35;;;;;;;7.40;78.40;101915.84;5020024;27;96784;-71
2023/12/27 08:31:25;;;;;;;10.52;1.20;;;;;;;6.90;80.10;101915.09;5029683;27;97252;-71
2023/12/27 08:33:51;;;;;;;13.57;1.20;;;;;;;7.43;78.93;101918.44;5029352;27;99618;-71
2023/12/27 08:36:17;;;;;;;14.48;2.67;;;;;;;7.12;79.71;101922.06;5028501;27;99036;-71
2023/12/27 08:38:44;;;;;;;16.13;1.35;;;;;;;6.55;81.47;101923.03;5030003;27;97164;-72
2023/12/27 08:41:10;;;;;;;20.92;2.50;;;;;;;6.94;80.81;101928.25;5024276;27;97260;-71
2023/12/27 08:43:37;;;;;;;16.60;1.60;;;;;;;6.57;82.10;101934.38;5027077;27;98770;-72
2023/12/27 08:46:08;;;;;;;9.65;1.40;;;;;;;7.12;79.55;101922.94;5027426;27;99166;-71
2023/12/27 08:48:34;;;;;;;15.65;1.95;;;;;;;7.03;79.97;101928.22;5024631;27;97328;-71
2023/12/27 08:51:01;;;;;;;10.13;1.63;;;;;;;7.40;78.27;101936.00;5028431;27;96926;-71
2023/12/27 08:53:27;;;;;;;9.63;1.25;;;;;;;7.65;76.71;101950.81;5023667;27;98812;-71
2023/12/27 08:55:54;;;;;;;11.70;1.40;;;;;;;7.81;75.79;101938.47;5027888;27;99100;-71
2023/12/27 08:58:20;;;;;;;16.92;1.50;;;;;;;8.17;75.62;101947.88;5027087;27;99173;-71
2023/12/27 09:00:47;;;;;;;9.18;1.63;;;;;;;8.11;74.10;101947.91;5028792;27;98608;-71
2023/12/27 09:03:14;;;;;;;14.95;3.85;;;;;;;7.99;74.85;101940.97;5021704;27;99222;-71
2023/12/27 09:05:41;;;;;;;16.60;4.22;;;;;;;8.15;74.31;101937.34;5026928;27;100555;-71
2023/12/27 09:08:07;;;;;;;14.55;2.60;;;;;;;8.54;73.15;101940.59;5025513;27;99499;-71
2023/12/27 09:10:35;;;;;;;10.40;2.35;;;;;;;8.71;71.87;101936.09;5024853;27;98662;-71
2023/12/27 09:13:01;;;;;;;16.75;2.25;;;;;;;9.03;70.85;101928.72;5026230;27;98859;-70
2023/12/27 09:15:27;;;;;;;20.00;2.85;;;;;;;9.09;69.63;101935.69;5010918;27;100077;-71
2023/12/27 09:17:54;;;;;;;17.02;3.13;;;;;;;9.32;69.72;101936.31;5013863;27;100162;-71
2023/12/27 09:20:21;;;;;;;17.23;2.35;;;;;;;9.40;68.87;101936.22;5015503;28;99357;-70
2023/12/27 09:22:48;;;;;;;16.48;2.00;;;;;;;9.18;69.04;101941.78;5026136;27;99322;-70
2023/12/27 09:25:15;;;;;;;13.63;1.73;;;;;;;8.78;70.00;101945.69;5029388;27;100440;-71
2023/12/27 09:27:41;;;;;;;15.90;2.20;;;;;;;8.60;70.99;101946.69;5029058;27;96950;-71
2023/12/27 09:30:08;;;;;;;13.05;1.70;;;;;;;8.48;72.36;101949.44;5024181;27;96865;-71
2023/12/27 09:32:34;;;;;;;14.20;2.88;;;;;;;8.86;71.45;101949.09;5030041;27;100358;-71
2023/12/27 09:35:01;;;;;;;12.43;1.25;;;;;;;9.09;70.89;101954.16;5020932;27;97526;-72
2023/12/27 09:37:29;;;;;;;17.52;2.13;;;;;;;9.22;69.19;101952.28;5027676;27;97000;-71
2023/12/27 09:39:55;;;;;;;10.07;2.42;;;;;;;9.46;68.81;101946.69;5029550;27;96792;-70
2023/12/27 09:42:22;;;;;;;12.73;1.88;;;;;;;9.79;67.48;101940.13;5026627;27;97807;-71
2023/12/27 09:44:50;;;;;;;6.35;1.38;;;;;;;9.42;66.92;101939.72;5028827;27;98874;-71
2023/12/27 09:47:18;;;;;;;12.70;3.13;;;;;;;9.47;67.86;101941.41;5021119;27;97059;-71
2023/12/27 09:49:44;;;;;;;14.48;2.00;;;;;;;9.92;66.81;101942.59;5023948;27;100252;-74
2023/12/27 09:52:12;;;;;;;18.70;3.58;;;;;;;9.63;66.89;101947.41;5017853;27;102597;-72
2023/12/27 09:54:39;;;;;;;9.98;1.80;;;;;;;9.40;68.25;101946.78;5023406;27;99061;-71
2023/12/27 09:57:06;;;;;;;14.68;1.73;;;;;;;9.57;67.55;101944.84;5023804;27;97165;-71
2023/12/27 09:59:38;;;;;;;11.35;1.80;;;;;;;9.29;68.45;101943.41;5027912;27;96890;-72
2023/12/27 10:02:10;;;;;;;9.32;1.58;;;;;;;9.63;67.33;101941.25;5029451;27;99087;-71
2023/12/27 10:04:46;;;;;;;15.90;2.22;;;;;;;9.95;66.71;101939.91;5021339;27;98802;-71
2023/12/27 10:07:14;;;;;;;13.35;1.88;;;;;;;9.78;66.13;101941.88;5023572;27;98133;-71
2023/12/27 10:09:43;;;;;;;15.15;1.63;;;;;;;10.32;65.89;101936.75;5022008;27;97136;-71
2023/12/27 10:12:10;;;;;;;15.88;2.10;;;;;;;10.19;64.82;101932.56;5025824;27;99995;-71
2023/12/27 10:14:37;;;;;;;25.52;2.78;;;;;;;10.07;65.45;101935.34;5027387;27;98808;-71
2023/12/27 10:17:04;;;;;;;14.52;1.70;;;;;;;10.22;64.83;101924.59;5021167;27;96814;-71
2023/12/27 10:19:37;;;;;;;24.42;2.85;;;;;;;10.31;64.14;101927.94;5024834;27;96973;-71
2023/12/27 10:22:04;;;;;;;22.95;3.15;;;;;;;10.38;64.38;101923.44;5024944;27;102147;-71
2023/12/27 10:24:30;;;;;;;13.27;2.22;;;;;;;10.20;65.01;101919.31;5027532;27;99077;-72
2023/12/27 10:26:58;;;;;;;15.48;2.13;;;;;;;10.35;63.55;101915.59;5026689;27;96833;-71
2023/12/27 10:29:25;;;;;;;19.77;2.10;;;;;;;10.07;64.68;101907.16;5023897;27;96884;-71
2023/12/27 10:31:51;;;;;;;14.80;1.70;;;;;;;10.04;64.86;101914.28;5021894;27;99164;-72
2023/12/27 10:34:18;;;;;;;12.20;2.85;;;;;;;10.47;64.33;101910.09;5027122;27;99100;-71
2023/12/27 10:36:44;;;;;;;11.63;1.80;;;;;;;10.42;64.04;101909.31;5028662;27;97362;-71
2023/12/27 10:39:11;;;;;;;7.60;1.48;;;;;;;10.47;63.96;101912.72;5025361;27;97057;-72
2023/12/27 10:41:38;;;;;;;12.52;1.35;;;;;;;10.34;63.83;101908.53;5024667;27;98887;-71
2023/12/27 10:44:07;;;;;;;12.38;1.55;;;;;;;10.52;63.99;101908.22;5028075;27;100578;-71
2023/12/27 10:46:36;;;;;;;15.02;2.22;;;;;;;10.47;63.87;101901.28;5028191;27;97153;-71
2023/12/27 10:49:05;;;;;;;12.63;1.42;;;;;;;10.87;63.41;101897.06;5027408;27;96914;-71
2023/12/27 10:51:37;;;;;;;17.70;2.03;;;;;;;10.81;62.83;101897.16;5023249;27;98877;-72
2023/12/27 10:54:04;;;;;;;18.80;2.90;;;;;;;10.93;62.28;101888.13;5028812;27;98753;-71
2023/12/27 10:56:36;;;;;;;14.02;1.65;;;;;;;10.98;62.08;101878.31;5028569;27;97312;-70
2023/12/27 10:59:04;;;;;;;17.77;3.47;;;;;;;10.88;61.83;101876.78;5022656;27;96895;-72
2023/12/27 11:01:33;;;;;;;16.90;3.20;;;;;;;10.87;62.05;101875.03;5027912;27;99036;-71
2023/12/27 11:04:06;;;;;;;15.13;2.05;;;;;;;10.90;61.86;101872.31;5024929;27;98933;-72
2023/12/27 11:06:36;;;;;;;17.48;2.40;;;;;;;10.88;61.35;101874.13;5025397;27;96817;-71
2023/12/27 11:09:07;;;;;;;13.40;2.53;;;;;;;11.16;60.83;101872.66;5024920;27;99532;-71
2023/12/27 11:11:36;;;;;;;9.32;1.60;;;;;;;10.53;62.14;101872.13;5023370;27;98927;-71
2023/12/27 11:14:04;;;;;;;11.85;2.13;;;;;;;10.06;63.53;101865.81;5026704;27;99085;-71
2023/12/27 11:16:34;;;;;;;13.85;1.70;;;;;;;9.85;64.42;101864.34;5023819;27;96801;-71
2023/12/27 11:19:03;;;;;;;10.13;2.03;;;;;;;9.91;65.49;101866.91;5024917;27;96769;-71
2023/12/27 11:21:29;;;;;;;10.43;1.42;;;;;;;9.93;65.21;101869.53;5024594;27;101889;-71
2023/12/27 11:23:56;;;;;;;12.60;1.88;;;;;;;10.25;64.52;101867.28;5029224;27;98971;-71
2023/12/27 11:26:22;;;;;;;13.38;2.38;;;;;;;10.21;64.78;101870.00;5021455;27;96796;-70